Time;durP1;ratioP1;P1;durP2;ratioP2;P2;SDS_P1;SDS_P2;PMS_P1;PMS_P2;Temp;Humidity;BMP_temperature;BMP_pressure;BME280_temperature;BME280_humidity;BME280_pressure;Samples;Min_cycle;Max_cycle;Signal;HPM_P1;HPM_P2
2023/09/20 00:01:37;;;;;;;5.67;2.50;;;;;;;20.80;61.71;100501.78;5419691;32;34281;-72
2023/09/20 00:04:42;;;;;;;5.62;2.80;;;;;;;20.82;62.02;100499.84;5434044;32;34633;-71
2023/09/20 00:07:46;;;;;;;6.23;3.00;;;;;;;20.95;62.38;100496.19;5452478;32;34623;-72
2023/09/20 00:10:48;;;;;;;8.33;2.87;;;;;;;20.31;65.09;100496.78;5449708;32;34821;-72
2023/09/20 00:13:50;;;;;;;7.40;2.85;;;;;;;20.74;63.45;100504.09;5452700;32;34238;-71
2023/09/20 00:16:53;;;;;;;6.80;2.85;;;;;;;20.75;63.11;100503.12;5431936;32;34519;-72
2023/09/20 00:19:56;;;;;;;4.57;2.40;;;;;;;20.59;63.67;100502.63;5453281;32;34973;-69
2023/09/20 00:23:00;;;;;;;5.47;2.42;;;;;;;21.21;62.00;100497.59;5424717;32;35197;-71
2023/09/20 00:26:03;;;;;;;5.43;2.70;;;;;;;20.71;62.86;100499.00;5437405;32;34460;-71
2023/09/20 00:29:06;;;;;;;6.23;3.30;;;;;;;20.51;63.80;100501.41;5450994;32;34976;-70
2023/09/20 00:32:10;;;;;;;4.30;2.60;;;;;;;20.79;62.72;100508.09;5429838;32;35075;-71
2023/09/20 00:35:14;;;;;;;6.67;2.60;;;;;;;20.72;63.40;100522.06;5452252;32;34207;-70
2023/09/20 00:38:18;;;;;;;7.35;2.90;;;;;;;20.98;62.43;100515.47;5450146;32;34858;-70
2023/09/20 00:41:21;;;;;;;5.90;2.75;;;;;;;20.46;64.05;100511.59;5454978;32;34168;-70
2023/09/20 00:44:25;;;;;;;7.25;2.90;;;;;;;20.25;65.65;100514.09;5441651;32;34956;-73
2023/09/20 00:47:27;;;;;;;5.80;2.77;;;;;;;20.78;63.16;100522.41;5448650;32;34562;-71
2023/09/20 00:50:34;;;;;;;;;;;;;;;20.98;62.03;100512.81;5421543;32;34965;-71
2023/09/20 00:53:37;;;;;;;3.60;2.30;;;;;;;20.44;63.82;100521.53;5430570;32;35563;-71
2023/09/20 00:56:40;;;;;;;4.57;2.37;;;;;;;20.19;64.00;100516.41;5439058;32;34530;-71
2023/09/20 00:59:42;;;;;;;3.78;2.12;;;;;;;20.31;63.51;100517.28;5429960;32;34998;-71
2023/09/20 01:02:45;;;;;;;3.80;2.30;;;;;;;20.48;62.45;100519.50;5448991;32;34052;-69
2023/09/20 01:05:48;;;;;;;5.37;2.17;;;;;;;20.11;63.79;100521.47;5434997;32;35294;-71
2023/09/20 01:08:51;;;;;;;3.12;2.12;;;;;;;20.65;62.46;100520.84;5418585;32;34412;-69
2023/09/20 01:11:57;;;;;;;4.40;2.20;;;;;;;20.36;63.79;100515.09;5456496;32;35199;-71
2023/09/20 01:14:59;;;;;;;4.37;2.37;;;;;;;20.30;63.86;100516.44;5450332;32;35059;-71
2023/09/20 01:18:04;;;;;;;6.37;2.60;;;;;;;20.17;64.77;100513.84;5421896;32;35195;-70
2023/09/20 01:21:07;;;;;;;4.23;2.63;;;;;;;20.13;64.48;100515.03;5449250;32;35361;-72
2023/09/20 01:24:10;;;;;;;5.65;2.50;;;;;;;19.46;67.76;100512.97;5445826;32;34596;-71
2023/09/20 01:27:13;;;;;;;5.47;3.10;;;;;;;19.96;65.45;100515.47;5432061;32;34135;-70
2023/09/20 01:30:17;;;;;;;4.70;2.33;;;;;;;20.24;65.24;100503.56;5436752;32;34556;-70
2023/09/20 01:33:19;;;;;;;6.67;2.90;;;;;;;19.60;67.33;100505.78;5459286;32;35394;-71
2023/09/20 01:36:22;;;;;;;4.65;2.55;;;;;;;19.29;69.38;100507.19;5452844;32;34896;-70
2023/09/20 01:39:24;;;;;;;5.47;2.75;;;;;;;19.74;67.35;100508.25;5452473;32;34703;-72
2023/09/20 01:42:27;;;;;;;;;;;;;;;19.33;69.62;100503.34;5430079;32;35362;-70
2023/09/20 01:45:30;;;;;;;5.18;2.70;;;;;;;19.49;68.51;100507.41;5454757;32;34789;-71
2023/09/20 01:48:32;;;;;;;;;;;;;;;19.18;70.27;100505.28;5439250;32;34658;-71
2023/09/20 01:51:35;;;;;;;4.57;2.67;;;;;;;19.43;68.94;100507.00;5446583;32;34811;-70
2023/09/20 01:54:37;;;;;;;7.25;3.00;;;;;;;20.09;66.49;100512.72;5460233;32;34775;-73
2023/09/20 01:57:40;;;;;;;5.07;3.00;;;;;;;19.69;68.31;100515.75;5457053;32;34674;-72
2023/09/20 02:00:42;;;;;;;5.75;2.75;;;;;;;20.14;66.33;100515.91;5440087;32;34647;-71
2023/09/20 02:03:45;;;;;;;;;;;;;;;20.48;64.85;100512.34;5448449;32;35902;-70
2023/09/20 02:06:47;;;;;;;6.00;3.00;;;;;;;20.26;65.45;100520.28;5450024;32;34835;-70
2023/09/20 02:09:50;;;;;;;7.43;3.15;;;;;;;19.68;67.82;100514.06;5460618;32;34730;-70
2023/09/20 02:12:53;;;;;;;5.65;3.15;;;;;;;19.16;70.67;100521.38;5446295;32;34013;-69
2023/09/20 02:15:59;;;;;;;8.10;3.23;;;;;;;19.09;71.55;100516.62;5443026;32;34172;-70
2023/09/20 02:19:02;;;;;;;7.50;3.10;;;;;;;19.10;71.50;100513.84;5449454;32;36195;-70
2023/09/20 02:22:04;;;;;;;6.00;3.13;;;;;;;19.27;70.70;100514.44;5435651;32;35028;-72
2023/09/20 02:25:12;;;;;;;6.70;3.13;;;;;;;18.91;72.67;100514.31;5450893;32;34979;-70
2023/09/20 02:28:14;;;;;;;7.40;3.10;;;;;;;19.32;70.91;100507.81;5437276;32;35131;-72
2023/09/20 02:31:17;;;;;;;10.75;3.85;;;;;;;19.23;71.48;100505.81;5458735;32;34273;-70
2023/09/20 02:34:20;;;;;;;8.37;3.40;;;;;;;19.15;71.81;100517.03;5456730;32;35111;-72
2023/09/20 02:37:23;;;;;;;9.02;3.35;;;;;;;19.32;70.94;100517.59;5439470;32;34413;-71
2023/09/20 02:40:26;;;;;;;7.40;3.20;;;;;;;18.81;73.19;100523.94;5453606;32;34091;-71
2023/09/20 02:43:29;;;;;;;6.78;3.30;;;;;;;19.13;72.40;100516.31;5425459;32;34899;-70
2023/09/20 02:46:32;;;;;;;7.13;3.20;;;;;;;19.41;70.35;100509.78;5437486;32;34735;-69
2023/09/20 02:49:34;;;;;;;7.62;2.92;;;;;;;19.20;70.97;100508.72;5428979;32;34353;-70
2023/09/20 02:52:39;;;;;;;6.37;2.87;;;;;;;19.47;70.53;100522.66;5454773;32;34150;-73
2023/09/20 02:55:41;;;;;;;6.53;3.20;;;;;;;18.83;72.62;100521.16;5453581;32;34903;-70
2023/09/20 02:58:48;;;;;;;5.07;2.80;;;;;;;19.07;72.20;100505.25;5438725;32;34491;-70
2023/09/20 03:01:50;;;;;;;7.30;3.40;;;;;;;19.56;70.10;100514.94;5451525;32;34299;-70
2023/09/20 03:04:53;;;;;;;7.22;3.58;;;;;;;18.63;74.00;100519.88;5450537;32;35281;-69
2023/09/20 03:07:56;;;;;;;8.90;2.83;;;;;;;19.29;71.01;100513.34;5447110;32;34173;-69
2023/09/20 03:10:59;;;;;;;;;;;;;;;18.59;73.62;100521.91;5440086;32;34944;-70
2023/09/20 03:14:03;;;;;;;8.35;3.10;;;;;;;19.08;71.36;100520.25;5434986;32;35385;-70
2023/09/20 03:17:06;;;;;;;7.13;3.20;;;;;;;19.84;67.93;100516.44;5451081;32;34963;-70
2023/09/20 03:20:12;;;;;;;7.85;3.10;;;;;;;19.80;67.65;100515.81;5439082;32;34971;-70
2023/09/20 03:23:15;;;;;;;5.93;2.90;;;;;;;19.74;68.44;100519.78;5449353;32;34131;-71
2023/09/20 03:26:18;;;;;;;6.05;3.10;;;;;;;19.02;70.62;100523.38;5434449;32;35232;-70
2023/09/20 03:29:23;;;;;;;6.03;3.00;;;;;;;19.52;68.86;100519.66;5419787;32;34602;-72
2023/09/20 03:32:25;;;;;;;6.33;2.30;;;;;;;20.00;67.25;100522.28;5447808;32;35624;-71
2023/09/20 03:35:28;;;;;;;7.30;3.08;;;;;;;19.84;67.28;100529.78;5453347;32;34180;-72
2023/09/20 03:38:32;;;;;;;8.18;3.12;;;;;;;19.29;69.09;100540.00;5434631;32;34708;-70
2023/09/20 03:41:35;;;;;;;8.27;3.00;;;;;;;19.56;68.47;100528.28;5453956;32;35211;-73
2023/09/20 03:44:45;;;;;;;7.10;3.42;;;;;;;19.39;69.07;100525.06;5447575;32;35038;-71
2023/09/20 03:48:06;;;;;;;7.67;3.00;;;;;;;19.40;69.30;100525.91;5421855;32;34840;-71
2023/09/20 03:51:15;;;;;;;7.28;2.55;;;;;;;19.61;68.30;100524.34;5436215;32;34357;-72
2023/09/20 03:54:18;;;;;;;7.00;4.10;;;;;;;19.84;66.65;100530.62;5443053;32;35472;-71
2023/09/20 03:57:24;;;;;;;10.45;3.20;;;;;;;19.27;68.83;100522.44;5450258;32;34904;-71
2023/09/20 04:00:28;;;;;;;8.63;2.90;;;;;;;19.33;68.42;100525.50;5448763;32;34225;-71
2023/09/20 04:03:34;;;;;;;14.33;4.03;;;;;;;19.62;67.73;100525.19;5438769;32;33987;-70
2023/09/20 04:06:38;;;;;;;8.67;3.10;;;;;;;18.99;69.63;100521.75;5447663;32;34502;-71
2023/09/20 04:09:40;;;;;;;5.43;2.67;;;;;;;19.49;67.96;100520.72;5446342;32;35407;-70
2023/09/20 04:12:43;;;;;;;7.10;2.62;;;;;;;19.74;66.39;100519.78;5435277;32;34906;-71
2023/09/20 04:15:45;;;;;;;6.35;2.42;;;;;;;19.83;66.09;100528.91;5432307;32;34325;-70
2023/09/20 04:18:48;;;;;;;5.95;2.87;;;;;;;19.42;67.11;100530.12;5437778;32;34156;-71
2023/09/20 04:21:50;;;;;;;;;;;;;;;19.58;66.60;100534.34;5430639;32;34564;-71
2023/09/20 04:24:53;;;;;;;9.27;3.33;;;;;;;19.54;66.46;100535.53;5434807;32;35490;-69
2023/09/20 04:27:55;;;;;;;6.30;3.15;;;;;;;19.88;64.83;100529.41;5420393;32;34299;-72
2023/09/20 04:30:58;;;;;;;9.98;3.03;;;;;;;19.20;67.54;100530.03;5448822;32;33969;-72
2023/09/20 04:34:00;;;;;;;59.25;8.27;;;;;;;19.06;68.65;100535.47;5461392;32;34508;-71
2023/09/20 04:37:03;;;;;;;5.43;2.42;;;;;;;19.37;67.09;100532.28;5432637;32;35504;-69
2023/09/20 04:40:09;;;;;;;7.43;2.53;;;;;;;20.17;64.08;100537.03;5451971;32;34673;-69
2023/09/20 04:43:14;;;;;;;5.90;2.63;;;;;;;20.24;63.11;100543.59;5432109;32;34861;-69
2023/09/20 04:46:17;;;;;;;11.23;2.60;;;;;;;20.41;62.31;100551.12;5433499;32;36691;-71
2023/09/20 04:49:19;;;;;;;5.47;2.72;;;;;;;20.52;61.32;100553.00;5432990;32;34832;-72
2023/09/20 04:52:23;;;;;;;6.82;2.97;;;;;;;20.04;63.21;100552.28;5444118;32;34512;-72
2023/09/20 04:55:26;;;;;;;11.23;3.30;;;;;;;19.33;65.42;100553.97;5439506;32;35298;-72
2023/09/20 04:58:29;;;;;;;8.83;4.10;;;;;;;19.12;66.29;100553.69;5441065;32;35080;-70
2023/09/20 05:01:32;;;;;;;6.43;3.00;;;;;;;19.38;65.68;100552.63;5434483;32;34614;-71
2023/09/20 05:04:35;;;;;;;8.40;3.20;;;;;;;19.30;65.35;100562.16;5432996;32;34775;-69
2023/09/20 05:07:37;;;;;;;5.62;2.65;;;;;;;20.40;62.30;100557.44;5448932;32;35376;-70
2023/09/20 05:10:39;;;;;;;6.78;2.78;;;;;;;20.37;61.81;100557.69;5446766;32;34779;-71
2023/09/20 05:13:41;;;;;;;6.62;2.78;;;;;;;20.12;63.01;100560.53;5433333;32;35065;-70
2023/09/20 05:16:44;;;;;;;4.03;2.30;;;;;;;21.04;58.86;100563.09;5436849;32;35722;-71
2023/09/20 05:19:46;;;;;;;6.47;2.47;;;;;;;21.21;58.83;100571.56;5447694;32;34320;-73
2023/09/20 05:22:48;;;;;;;10.43;3.58;;;;;;;20.59;60.27;100572.91;5449792;32;34746;-72
2023/09/20 05:25:51;;;;;;;6.85;3.40;;;;;;;20.74;59.84;100563.72;5448369;32;34510;-72
2023/09/20 05:28:54;;;;;;;7.93;3.78;;;;;;;20.62;60.47;100569.16;5435193;32;34789;-71
2023/09/20 05:31:57;;;;;;;8.85;3.70;;;;;;;22.26;56.28;100564.69;5458664;32;35257;-71
2023/09/20 05:34:59;;;;;;;10.35;4.18;;;;;;;22.73;53.85;100583.84;5430016;32;35406;-72
2023/09/20 05:38:02;;;;;;;;;;;;;;;23.30;53.25;100571.69;5436717;32;34973;-71
2023/09/20 05:41:04;;;;;;;11.35;5.12;;;;;;;22.83;53.67;100576.72;5451271;32;34601;-72
2023/09/20 05:44:06;;;;;;;12.95;3.40;;;;;;;23.93;50.05;100574.91;5459212;32;33963;-70
2023/09/20 05:47:09;;;;;;;4.35;1.67;;;;;;;24.63;48.08;100573.72;5455302;32;34682;-70
2023/09/20 05:50:13;;;;;;;;;;;;;;;25.98;47.50;100576.69;5442114;32;35436;-73
2023/09/20 05:53:16;;;;;;;9.93;3.30;;;;;;;25.11;46.73;100575.38;5445457;32;34401;-72
2023/09/20 05:56:19;;;;;;;7.20;2.80;;;;;;;26.63;44.80;100577.22;5442589;32;35458;-72
2023/09/20 05:59:23;;;;;;;13.27;3.83;;;;;;;26.75;44.17;100581.34;5429917;32;34086;-72
2023/09/20 06:02:25;;;;;;;8.40;4.18;;;;;;;25.16;46.37;100586.56;5429837;32;33573;-73
2023/09/20 06:05:28;;;;;;;9.73;4.20;;;;;;;23.95;49.16;100589.03;5427184;32;32081;-70
2023/09/20 06:08:30;;;;;;;;;;;;;;;23.31;51.49;100594.84;5448901;32;34673;-72
2023/09/20 06:11:32;;;;;;;8.43;3.87;;;;;;;22.98;53.11;100595.00;5442355;32;34211;-78
2023/09/20 06:14:35;;;;;;;;;;;;;;;23.56;50.61;100593.50;5449620;32;35399;-73
2023/09/20 06:17:37;;;;;;;7.53;3.55;;;;;;;24.30;48.98;100589.31;5428016;32;34914;-73
2023/09/20 06:20:39;;;;;;;7.57;3.37;;;;;;;25.30;45.94;100596.81;5452578;32;34661;-70
2023/09/20 06:23:41;;;;;;;;;;;;;;;24.68;46.28;100603.69;5436909;32;34342;-73
2023/09/20 06:26:44;;;;;;;4.72;2.87;;;;;;;22.94;51.88;100606.16;5443354;32;34263;-73
2023/09/20 06:29:46;;;;;;;7.45;2.75;;;;;;;23.48;49.72;100603.06;5448328;32;32371;-69
2023/09/20 06:32:48;;;;;;;6.65;2.37;;;;;;;23.82;48.35;100609.94;5434186;32;34797;-71
2023/09/20 06:35:53;;;;;;;13.43;4.30;;;;;;;23.61;48.48;100612.72;5431081;32;35548;-77
2023/09/20 06:38:55;;;;;;;10.98;2.90;;;;;;;23.39;49.25;100616.47;5430900;32;35514;-79
2023/09/20 06:41:58;;;;;;;5.87;2.22;;;;;;;24.17;47.28;100607.56;5443095;32;34199;-72
2023/09/20 06:45:00;;;;;;;10.40;2.40;;;;;;;24.47;46.84;100611.94;5429355;32;34386;-73
2023/09/20 06:48:03;;;;;;;5.72;2.37;;;;;;;25.26;44.43;100613.41;5425210;32;32591;-72
2023/09/20 06:51:05;;;;;;;8.80;2.95;;;;;;;26.23;42.15;100607.38;5430199;32;34164;-72
2023/09/20 06:54:08;;;;;;;5.47;2.40;;;;;;;25.24;44.76;100605.47;5442382;32;34128;-73
2023/09/20 06:57:17;;;;;;;12.02;2.70;;;;;;;25.23;44.36;100609.16;5431056;32;34170;-72
2023/09/20 07:00:25;;;;;;;13.23;2.90;;;;;;;24.87;44.92;100601.94;5444656;32;34030;-72
2023/09/20 07:03:32;;;;;;;4.68;2.80;;;;;;;25.18;44.66;100611.44;5444290;32;35534;-78
2023/09/20 07:06:34;;;;;;;9.27;3.50;;;;;;;24.87;45.69;100613.53;5432088;32;35196;-76
2023/09/20 07:09:37;;;;;;;;;;;;;;;26.06;43.08;100609.06;5444137;32;35374;-73
2023/09/20 07:12:40;;;;;;;13.15;4.07;;;;;;;24.94;45.93;100616.50;5424445;32;36487;-77
2023/09/20 07:15:43;;;;;;;8.70;4.12;;;;;;;25.93;43.53;100618.38;5425911;32;34124;-73
2023/09/20 07:18:45;;;;;;;13.98;4.22;;;;;;;25.22;45.75;100617.38;5455466;32;34041;-72
2023/09/20 07:21:47;;;;;;;12.63;4.50;;;;;;;24.80;46.85;100618.66;5453781;32;36234;-70
2023/09/20 07:24:54;;;;;;;16.45;5.22;;;;;;;24.52;48.00;100614.19;5437912;32;34941;-70
2023/09/20 07:28:00;;;;;;;15.95;5.45;;;;;;;23.01;52.45;100630.59;5452863;32;35710;-68
2023/09/20 07:31:06;;;;;;;12.70;5.60;;;;;;;23.17;52.31;100626.41;5437505;32;35410;-71
2023/09/20 07:34:16;;;;;;;12.48;5.10;;;;;;;23.70;50.79;100628.88;5405146;32;35724;-70
2023/09/20 07:37:18;;;;;;;7.90;3.70;;;;;;;23.43;51.47;100623.25;5395354;32;35083;-72
2023/09/20 07:40:21;;;;;;;13.40;6.43;;;;;;;23.35;50.65;100631.97;5400836;32;34876;-81
2023/09/20 07:43:28;;;;;;;9.13;3.60;;;;;;;24.04;49.68;100628.47;5404124;32;31965;-70
2023/09/20 07:46:34;;;;;;;4.60;2.72;;;;;;;24.49;48.03;100625.22;5389113;32;34483;-80
2023/09/20 07:49:36;;;;;;;8.63;2.60;;;;;;;25.54;44.72;100625.00;5398557;32;34494;-81
2023/09/20 07:52:40;;;;;;;9.70;3.00;;;;;;;25.70;44.44;100618.94;5411886;32;32579;-82
2023/09/20 07:55:45;;;;;;;6.60;2.62;;;;;;;24.74;46.57;100621.94;5414030;32;35358;-72
2023/09/20 07:58:47;;;;;;;5.05;2.50;;;;;;;25.71;44.03;100616.13;5414062;32;34940;-71
2023/09/20 08:01:52;;;;;;;5.00;2.33;;;;;;;25.55;44.77;100626.69;5410414;32;36418;-72
2023/09/20 08:04:54;;;;;;;9.98;2.97;;;;;;;26.03;43.49;100618.31;5400664;32;35424;-73
2023/09/20 08:07:57;;;;;;;10.82;2.80;;;;;;;25.99;43.84;100618.78;5411111;32;34053;-72
2023/09/20 08:10:59;;;;;;;;;;;;;;;24.66;46.90;100621.78;5389201;32;35045;-70
2023/09/20 08:14:14;;;;;;;10.20;3.58;;;;;;;24.02;49.43;100630.44;5412007;32;34253;-73
2023/09/20 08:20:38;;;;;;;9.52;3.08;;;;;;;24.19;48.76;100634.25;5412417;32;35235;-73
2023/09/20 09:00:46;;;;;;;5.78;2.00;;;;;;;30.44;34.30;100590.44;5408093;32;33912;-75
2023/09/20 09:03:49;;;;;;;6.10;1.98;;;;;;;32.71;30.96;100590.16;5377324;32;38625;-71
2023/09/20 09:06:51;;;;;;;4.28;1.80;;;;;;;32.68;31.06;100589.75;5373187;32;34177;-75
2023/09/20 09:09:53;;;;;;;6.72;2.25;;;;;;;32.48;31.17;100582.28;5381273;32;34048;-72
2023/09/20 09:12:55;;;;;;;6.97;2.03;;;;;;;30.84;33.92;100591.06;5390666;32;34789;-74
2023/09/20 09:15:58;;;;;;;6.10;1.83;;;;;;;34.00;29.09;100579.41;5365120;32;34146;-73
2023/09/20 09:19:00;;;;;;;3.67;1.67;;;;;;;34.92;27.47;100570.38;5383893;32;35670;-76
2023/09/20 09:22:04;;;;;;;7.30;1.95;;;;;;;32.48;30.85;100560.53;5383255;32;36020;-82
2023/09/20 09:25:11;;;;;;;6.93;1.77;;;;;;;32.31;31.28;100565.38;5380435;32;34497;-76
2023/09/20 09:28:16;;;;;;;7.22;1.70;;;;;;;34.88;27.04;100557.31;5356035;32;34106;-74
2023/09/20 09:31:18;;;;;;;4.00;1.80;;;;;;;34.53;27.58;100546.72;5379440;32;34083;-73
2023/09/20 09:34:21;;;;;;;10.20;2.28;;;;;;;32.56;30.31;100545.91;5375007;32;34808;-72
2023/09/20 09:37:25;;;;;;;4.50;1.50;;;;;;;33.85;28.54;100544.16;5332373;32;34629;-69
2023/09/20 09:40:28;;;;;;;4.30;1.83;;;;;;;34.51;27.82;100535.16;5341217;32;34928;-70
2023/09/20 09:43:32;;;;;;;3.95;1.50;;;;;;;36.69;24.56;100526.69;5335633;32;34125;-72
2023/09/20 09:46:38;;;;;;;7.45;3.90;;;;;;;36.79;24.57;100532.47;5337685;32;35320;-73
2023/09/20 09:49:41;;;;;;;7.45;2.47;;;;;;;37.45;23.57;100517.12;5330771;32;37003;-72
2023/09/20 09:52:47;;;;;;;3.90;1.70;;;;;;;36.65;24.72;100517.22;5322354;32;36002;-78
2023/09/20 09:56:05;;;;;;;2.97;1.35;;;;;;;38.07;23.28;100512.97;5322441;32;33855;-76
2023/09/20 09:59:21;;;;;;;3.53;1.62;;;;;;;34.73;27.26;100524.81;5320806;32;34130;-71
2023/09/20 10:02:44;;;;;;;3.93;1.83;;;;;;;37.62;23.53;100516.22;5339678;32;33817;-71
2023/09/20 10:06:16;;;;;;;4.78;1.98;;;;;;;36.87;24.33;100513.03;5339148;32;36145;-69
2023/09/20 10:09:38;;;;;;;4.32;1.52;;;;;;;35.46;26.52;100519.06;5337805;32;35874;-72
2023/09/20 10:13:00;;;;;;;4.03;1.83;;;;;;;38.55;21.98;100517.41;5326657;32;33439;-70
2023/09/20 10:16:28;;;;;;;5.78;1.98;;;;;;;37.92;22.58;100512.59;5335754;32;35537;-72
2023/09/20 10:19:39;;;;;;;2.67;1.62;;;;;;;36.43;24.13;100504.00;5322727;32;34938;-72
2023/09/20 10:22:45;;;;;;;5.85;2.10;;;;;;;36.17;24.59;100506.97;5311156;32;37203;-71
2023/09/20 10:26:15;;;;;;;4.82;1.87;;;;;;;36.49;24.55;100500.38;5336532;32;34432;-72
2023/09/20 10:29:33;;;;;;;8.55;2.00;;;;;;;36.75;24.04;100503.88;5324972;32;33815;-71
2023/09/20 10:32:38;;;;;;;4.90;1.90;;;;;;;35.49;26.17;100508.56;5339197;32;34693;-68
2023/09/20 10:35:41;;;;;;;3.25;1.62;;;;;;;37.35;23.64;100488.34;5319648;32;35966;-74
2023/09/20 10:38:50;;;;;;;4.85;1.73;;;;;;;35.67;24.92;100491.37;5331940;32;35299;-70
2023/09/20 10:42:05;;;;;;;;;;;;;;;34.35;26.63;100490.03;5330483;32;33991;-74
2023/09/20 10:45:39;;;;;;;5.22;1.70;;;;;;;33.24;28.23;100500.63;5334693;32;35731;-74
2023/09/20 10:48:53;;;;;;;4.93;1.55;;;;;;;31.37;31.69;100499.47;5318960;32;35327;-74
2023/09/20 10:52:15;;;;;;;3.53;1.70;;;;;;;30.07;32.54;100495.53;5328342;32;33261;-75
2023/09/20 10:55:41;;;;;;;4.80;1.60;;;;;;;29.38;34.81;100501.00;5328437;32;34070;-71
2023/09/20 10:58:44;;;;;;;3.17;1.60;;;;;;;30.67;32.66;100494.59;5343673;32;35756;-92
2023/09/20 11:01:58;;;;;;;5.37;1.48;;;;;;;29.75;33.39;100502.91;5342783;32;36841;-73
2023/09/20 11:05:14;;;;;;;3.50;1.60;;;;;;;29.84;33.42;100480.19;5335742;32;36360;-74
2023/09/20 11:08:24;;;;;;;5.75;1.83;;;;;;;29.75;33.92;100481.25;5314657;32;32833;-72
2023/09/20 11:11:43;;;;;;;1.87;1.37;;;;;;;29.05;35.35;100479.53;5337900;32;33550;-74
2023/09/20 11:15:15;;;;;;;1.50;1.15;;;;;;;29.02;35.53;100476.31;5321926;32;34309;-75
2023/09/20 11:18:23;;;;;;;2.58;1.60;;;;;;;30.15;32.87;100469.25;5325012;32;35504;-71
2023/09/20 11:21:37;;;;;;;3.40;1.50;;;;;;;29.58;33.98;100464.31;5332517;32;34059;-75
2023/09/20 11:24:48;;;;;;;3.47;1.50;;;;;;;29.37;34.35;100458.69;5318797;32;34970;-73
2023/09/20 11:27:56;;;;;;;2.53;1.58;;;;;;;30.09;33.08;100450.97;5322055;32;34142;-69
2023/09/20 11:31:26;;;;;;;3.17;1.27;;;;;;;30.14;32.61;100448.59;5319118;32;34853;-74
2023/09/20 11:34:53;;;;;;;4.82;1.50;;;;;;;29.51;33.34;100439.00;5281383;32;34558;-74
2023/09/20 11:38:02;;;;;;;3.62;1.52;;;;;;;29.50;33.72;100444.53;5275646;32;37352;-78
2023/09/20 11:41:21;;;;;;;3.67;1.27;;;;;;;29.61;33.82;100442.28;5266796;32;35467;-80
2023/09/20 11:44:31;;;;;;;3.33;1.73;;;;;;;30.14;32.42;100450.44;5277457;32;35985;-68
2023/09/20 11:47:49;;;;;;;3.87;1.60;;;;;;;30.74;31.12;100447.56;5290989;32;33959;-71
2023/09/20 11:51:06;;;;;;;5.68;1.40;;;;;;;29.92;33.19;100452.16;5291610;32;34847;-70
2023/09/20 11:54:16;;;;;;;3.03;1.20;;;;;;;29.97;31.05;100438.91;5271229;32;36843;-69
2023/09/20 11:57:35;;;;;;;3.20;1.23;;;;;;;31.41;29.05;100434.75;5297153;32;36424;-69
2023/09/20 12:00:49;;;;;;;4.82;1.87;;;;;;;30.82;29.64;100438.47;5295416;32;33888;-70
2023/09/20 12:04:08;;;;;;;5.75;1.67;;;;;;;30.11;32.07;100429.97;5288364;32;35432;-65
2023/09/20 12:07:36;;;;;;;7.25;2.85;;;;;;;31.65;30.61;100423.47;5307957;32;34972;-70
2023/09/20 12:10:44;;;;;;;2.67;1.35;;;;;;;33.10;28.51;100409.91;5300214;32;35066;-76
2023/09/20 12:13:47;;;;;;;4.15;1.40;;;;;;;34.04;26.25;100405.34;5305757;32;36971;-77
2023/09/20 12:17:16;;;;;;;4.18;1.50;;;;;;;31.08;29.53;100410.78;5305167;32;33960;-72
2023/09/20 12:20:24;;;;;;;3.25;1.40;;;;;;;30.87;30.23;100413.50;5242050;32;34081;-73
2023/09/20 12:24:03;;;;;;;4.62;1.50;;;;;;;30.46;31.24;100417.56;5215579;32;35484;-69
2023/09/20 12:27:08;;;;;;;4.33;1.63;;;;;;;32.01;29.10;100408.91;5238425;32;34096;-77
2023/09/20 12:30:34;;;;;;;3.62;1.52;;;;;;;29.61;32.40;100415.19;5241730;32;35512;-76
2023/09/20 12:33:52;;;;;;;5.03;1.50;;;;;;;30.43;31.40;100412.50;5237030;32;35077;-81
2023/09/20 12:37:21;;;;;;;4.18;1.83;;;;;;;30.63;30.92;100406.47;5236795;32;33910;-71
2023/09/20 12:40:29;;;;;;;3.15;1.42;;;;;;;30.15;32.01;100404.19;5240748;32;35469;-74
2023/09/20 12:43:36;;;;;;;3.30;1.48;;;;;;;30.56;31.37;100394.72;5233812;32;37479;-75
2023/09/20 12:46:58;;;;;;;3.45;1.30;;;;;;;31.60;29.87;100387.91;5220658;32;34579;-70
2023/09/20 12:50:25;;;;;;;3.40;1.55;;;;;;;30.70;30.91;100380.31;5226132;32;33838;-69
2023/09/20 12:53:32;;;;;;;3.15;1.23;;;;;;;31.27;30.36;100372.16;5224131;32;36378;-77
2023/09/20 12:56:51;;;;;;;7.75;1.30;;;;;;;33.05;27.45;100374.28;5199983;32;35264;-74
2023/09/20 13:00:00;;;;;;;1.75;1.20;;;;;;;34.04;25.40;100362.53;5204073;32;34085;-67
2023/09/20 13:03:28;;;;;;;3.15;1.30;;;;;;;32.78;26.72;100359.75;5215553;32;36765;-71
2023/09/20 13:07:04;;;;;;;2.53;1.40;;;;;;;32.25;27.48;100354.06;5227674;32;33922;-68
2023/09/20 13:10:17;;;;;;;2.58;1.30;;;;;;;33.49;26.54;100353.81;5233315;32;33900;-81
2023/09/20 13:13:38;;;;;;;3.28;1.58;;;;;;;33.03;26.59;100351.84;5231596;32;34048;-75
2023/09/20 13:16:49;;;;;;;4.80;1.37;;;;;;;34.11;25.72;100344.28;5223057;32;35349;-74
2023/09/20 13:20:03;;;;;;;3.47;1.30;;;;;;;35.66;23.43;100322.94;5225918;32;36377;-81
2023/09/20 13:23:13;;;;;;;3.67;1.40;;;;;;;40.51;17.95;100320.53;5228756;32;35209;-78
2023/09/20 13:26:25;;;;;;;3.50;1.50;;;;;;;37.67;20.54;100315.31;5190040;32;37350;-77
2023/09/20 13:29:36;;;;;;;5.43;1.67;;;;;;;34.82;23.91;100317.94;5197022;32;36063;-72
2023/09/20 13:33:02;;;;;;;3.65;1.27;;;;;;;32.18;27.57;100328.72;5216332;32;34628;-75
2023/09/20 13:36:20;;;;;;;3.17;1.55;;;;;;;32.29;27.12;100322.72;5238838;32;33941;-68
2023/09/20 13:39:42;;;;;;;1.42;1.10;;;;;;;30.62;29.96;100318.84;5259208;32;33680;-72
2023/09/20 13:43:18;;;;;;;4.05;1.40;;;;;;;31.29;28.56;100314.94;5263918;32;34230;-70
2023/09/20 13:46:26;;;;;;;1.77;1.20;;;;;;;31.30;28.53;100310.34;5250060;32;36228;-70
2023/09/20 13:49:36;;;;;;;2.15;1.23;;;;;;;30.76;29.67;100313.59;5259725;32;35491;-78
2023/09/20 13:52:44;;;;;;;4.80;1.30;;;;;;;30.68;29.60;100311.84;5251209;32;36726;-72
2023/09/20 13:55:51;;;;;;;2.35;1.27;;;;;;;30.94;29.27;100311.28;5249356;32;33329;-67
2023/09/20 13:59:15;;;;;;;5.70;3.20;;;;;;;30.44;29.61;100311.13;5229023;32;37835;-78
2023/09/20 14:02:39;;;;;;;2.53;1.35;;;;;;;30.99;29.40;100303.41;5226489;32;35086;-81
2023/09/20 14:05:53;;;;;;;4.30;1.80;;;;;;;30.27;29.82;100298.84;5216639;32;33351;-68
2023/09/20 14:08:58;;;;;;;4.07;1.85;;;;;;;29.80;30.50;100308.19;5235476;32;35314;-87
2023/09/20 14:12:01;;;;;;;6.75;1.60;;;;;;;29.62;30.98;100308.53;5242201;32;34872;-74
2023/09/20 14:15:29;;;;;;;1.85;1.20;;;;;;;29.72;31.00;100302.03;5256716;32;35860;-72
2023/09/20 14:18:38;;;;;;;3.40;1.42;;;;;;;29.17;31.71;100298.63;5278994;32;34160;-88
2023/09/20 14:22:07;;;;;;;4.32;1.50;;;;;;;29.39;31.65;100302.34;5291068;32;35029;-79
2023/09/20 14:25:11;;;;;;;6.87;1.35;;;;;;;29.84;31.13;100289.72;5295045;32;34012;-73
2023/09/20 14:28:15;;;;;;;3.37;1.30;;;;;;;29.32;31.99;100287.87;5322339;32;34131;-87
2023/09/20 14:31:18;;;;;;;10.05;2.17;;;;;;;30.05;30.39;100284.34;5405529;32;34843;-73
2023/09/20 14:34:21;;;;;;;4.75;1.50;;;;;;;29.05;32.29;100283.88;5395141;32;34243;-67
2023/09/20 14:37:26;;;;;;;3.42;1.20;;;;;;;29.96;30.83;100284.66;5391161;32;34138;-72
2023/09/20 14:40:29;;;;;;;3.22;1.52;;;;;;;30.10;30.44;100281.94;5393216;32;36393;-76
2023/09/20 14:43:31;;;;;;;3.72;1.35;;;;;;;29.76;30.83;100287.09;5392572;32;34169;-71
2023/09/20 14:46:35;;;;;;;3.53;1.20;;;;;;;29.40;30.96;100276.94;5396320;32;34283;-71
2023/09/20 14:49:41;;;;;;;2.35;1.17;;;;;;;29.21;31.48;100280.19;5396172;32;34901;-71
2023/09/20 14:52:44;;;;;;;5.32;1.60;;;;;;;29.23;31.08;100276.25;5394549;32;34229;-76
2023/09/20 14:55:47;;;;;;;4.15;1.30;;;;;;;28.99;31.74;100268.38;5390790;32;34304;-75
2023/09/20 14:58:50;;;;;;;4.05;1.40;;;;;;;29.49;30.79;100266.84;5392535;32;34480;-75
2023/09/20 15:01:53;;;;;;;4.85;1.70;;;;;;;29.54;30.26;100272.59;5387916;32;34980;-75
2023/09/20 15:04:56;;;;;;;3.00;1.60;;;;;;;29.28;30.45;100262.19;5396250;32;34300;-71
2023/09/20 15:07:58;;;;;;;5.75;2.47;;;;;;;28.87;31.36;100276.88;5391095;32;34004;-75
2023/09/20 15:11:03;;;;;;;6.07;1.35;;;;;;;29.05;31.02;100271.19;5397887;32;35022;-71
2023/09/20 15:14:10;;;;;;;5.87;1.65;;;;;;;29.48;29.96;100265.19;5399321;32;34130;-71